createdAt,value
2023-01-27T00:01:28.850Z,2.01
2023-01-27T00:03:56.942Z,1.95
2023-01-27T00:06:27.379Z,2.00
2023-01-27T00:08:55.125Z,1.92
2023-01-27T00:11:40.590Z,2.12
2023-01-27T00:14:08.329Z,1.87
2023-01-27T00:16:36.338Z,1.99
2023-01-27T00:19:04.345Z,2.00
2023-01-27T00:21:50.973Z,1.98
2023-01-27T00:24:37.285Z,1.97
2023-01-27T00:27:05.764Z,1.82
2023-01-27T00:29:33.433Z,1.78
2023-01-27T00:32:19.011Z,1.93
2023-01-27T00:34:46.722Z,1.84
2023-01-27T00:37:16.507Z,1.88
2023-01-27T00:39:44.481Z,1.93
2023-01-27T00:42:12.091Z,2.13
2023-01-27T00:45:00.773Z,2.04
2023-01-27T00:47:30.885Z,1.97
2023-01-27T00:49:59.813Z,2.06
2023-01-27T00:52:29.050Z,1.92
2023-01-27T00:54:56.586Z,1.69
2023-01-27T00:57:24.707Z,1.62
2023-01-27T00:59:52.410Z,1.58
2023-01-27T01:02:22.694Z,1.63
2023-01-27T01:04:52.130Z,1.83
2023-01-27T01:07:20.481Z,1.89
2023-01-27T01:09:54.787Z,1.92
2023-01-27T01:12:22.646Z,2.16
2023-01-27T01:14:50.273Z,2.10
2023-01-27T01:17:18.068Z,2.20
2023-01-27T01:19:47.480Z,2.15
2023-01-27T01:22:15.253Z,2.23
2023-01-27T01:24:43.556Z,2.19
2023-01-27T01:27:14.908Z,2.09
2023-01-27T01:29:44.700Z,2.10
2023-01-27T01:32:12.781Z,2.24
2023-01-27T01:34:40.485Z,2.16
2023-01-27T01:37:08.296Z,2.08
2023-01-27T01:39:39.040Z,2.23
2023-01-27T01:42:06.678Z,2.15
2023-01-27T01:44:39.385Z,2.26
2023-01-27T01:47:07.228Z,2.18
2023-01-27T01:49:40.865Z,2.16
2023-01-27T01:52:12.281Z,2.22
2023-01-27T01:54:45.464Z,2.20
2023-01-27T01:57:21.611Z,2.22
2023-01-27T01:59:55.840Z,2.10
2023-01-27T02:02:27.419Z,2.14
2023-01-27T02:04:58.796Z,2.09
2023-01-27T02:07:32.278Z,2.25
2023-01-27T02:10:01.659Z,2.19
2023-01-27T02:12:29.812Z,2.24
2023-01-27T02:15:00.042Z,2.17
2023-01-27T02:17:29.870Z,2.14
2023-01-27T02:20:08.819Z,2.00
2023-01-27T02:22:45.123Z,1.93
2023-01-27T02:25:23.334Z,2.03
2023-01-27T02:27:52.252Z,1.89
2023-01-27T02:30:22.274Z,1.99
2023-01-27T02:32:52.414Z,2.05
2023-01-27T02:35:26.135Z,2.06
2023-01-27T02:37:54.221Z,2.12
2023-01-27T02:40:25.779Z,2.07
2023-01-27T02:42:57.870Z,1.94
2023-01-27T02:45:29.001Z,1.93
2023-01-27T02:47:56.689Z,2.00
2023-01-27T02:50:24.421Z,1.87
2023-01-27T02:52:52.657Z,2.00
2023-01-27T02:55:20.597Z,2.08
2023-01-27T02:57:48.307Z,1.97
2023-01-27T03:00:18.122Z,1.86
2023-01-27T03:02:45.995Z,1.91
2023-01-27T03:05:14.325Z,2.11
2023-01-27T03:07:42.318Z,2.01
2023-01-27T03:10:14.977Z,2.02
2023-01-27T03:12:42.876Z,2.10
2023-01-27T03:15:28.952Z,2.05
2023-01-27T03:18:13.044Z,2.10
2023-01-27T03:20:42.222Z,2.06
2023-01-27T03:23:10.488Z,2.10
2023-01-27T03:25:43.169Z,2.03
2023-01-27T03:28:13.484Z,2.16
2023-01-27T03:30:42.045Z,1.97
2023-01-27T03:33:11.127Z,2.00
2023-01-27T03:35:48.137Z,2.12
2023-01-27T03:38:34.225Z,2.13
2023-01-27T03:41:22.730Z,2.06
2023-01-27T03:44:08.386Z,1.87
2023-01-27T03:46:36.119Z,2.05
2023-01-27T03:49:05.234Z,2.17
2023-01-27T03:51:32.828Z,2.27
2023-01-27T03:54:01.064Z,2.17
2023-01-27T03:56:28.904Z,2.28
2023-01-27T03:58:56.668Z,2.18
2023-01-27T04:01:25.177Z,2.24
2023-01-27T04:04:11.291Z,2.31
2023-01-27T04:06:58.089Z,2.10
2023-01-27T04:09:28.075Z,2.25
2023-01-27T04:11:56.278Z,2.16
2023-01-27T04:14:25.955Z,2.19
2023-01-27T04:16:55.349Z,2.25
2023-01-27T04:19:23.297Z,2.12
2023-01-27T04:21:52.890Z,2.28
2023-01-27T04:24:23.976Z,2.17
2023-01-27T04:26:55.336Z,2.25
2023-01-27T04:29:24.763Z,2.31
2023-01-27T04:31:52.904Z,2.34
2023-01-27T04:34:20.921Z,2.30
2023-01-27T04:36:49.063Z,2.29
2023-01-27T04:39:18.477Z,2.20
2023-01-27T04:41:46.691Z,2.15
2023-01-27T04:44:14.886Z,2.29
2023-01-27T04:46:43.583Z,2.30
2023-01-27T04:49:11.707Z,2.23
2023-01-27T04:51:39.642Z,2.20
2023-01-27T04:54:07.467Z,2.22
2023-01-27T04:56:39.279Z,2.33
2023-01-27T04:59:09.219Z,2.43
2023-01-27T05:01:36.876Z,2.16
2023-01-27T05:04:04.663Z,2.39
2023-01-27T05:06:32.609Z,2.39
2023-01-27T05:09:01.294Z,2.38
2023-01-27T05:11:29.001Z,2.36
2023-01-27T05:13:59.299Z,2.33
2023-01-27T05:16:27.603Z,2.16
2023-01-27T05:18:56.210Z,2.16
2023-01-27T05:21:25.561Z,2.40
2023-01-27T05:23:53.422Z,2.47
2023-01-27T05:26:23.329Z,2.42
2023-01-27T05:28:52.716Z,2.42
2023-01-27T05:31:24.471Z,2.37
2023-01-27T05:33:54.699Z,2.46
2023-01-27T05:36:28.859Z,2.33
2023-01-27T05:38:58.829Z,2.39
2023-01-27T05:41:31.893Z,2.43
2023-01-27T05:43:59.693Z,2.51
2023-01-27T05:46:31.617Z,2.48
2023-01-27T05:49:02.809Z,2.42
2023-01-27T05:51:32.318Z,2.47
2023-01-27T05:53:59.984Z,2.51
2023-01-27T05:56:28.931Z,2.49
2023-01-27T05:59:00.742Z,2.39
2023-01-27T06:01:32.793Z,2.44
2023-01-27T06:04:00.636Z,2.35
2023-01-27T06:06:30.447Z,2.23
2023-01-27T06:08:59.833Z,2.39
2023-01-27T06:11:28.627Z,2.32
2023-01-27T06:13:57.038Z,2.49
2023-01-27T06:16:25.052Z,2.39
2023-01-27T06:18:54.140Z,2.42
2023-01-27T06:21:24.120Z,2.43
2023-01-27T06:23:53.468Z,2.49
2023-01-27T06:26:22.042Z,2.56
2023-01-27T06:28:50.935Z,2.49
2023-01-27T06:31:21.427Z,2.55
2023-01-27T06:33:49.581Z,2.60
2023-01-27T06:36:20.318Z,2.46
2023-01-27T06:38:48.683Z,2.60
2023-01-27T06:41:16.589Z,2.71
2023-01-27T06:43:44.266Z,2.67
2023-01-27T06:46:12.284Z,2.67
2023-01-27T06:48:40.014Z,2.52
2023-01-27T06:51:07.941Z,2.63
2023-01-27T06:53:37.492Z,2.69
2023-01-27T06:56:06.253Z,2.54
2023-01-27T06:58:34.104Z,2.51
2023-01-27T07:01:02.676Z,2.58
2023-01-27T07:03:30.337Z,2.56
2023-01-27T07:05:58.049Z,2.66
2023-01-27T07:08:25.796Z,2.49
2023-01-27T07:10:55.008Z,2.58
2023-01-27T07:13:23.103Z,2.48
2023-01-27T07:15:56.106Z,2.57
2023-01-27T07:18:27.513Z,2.64
2023-01-27T07:20:55.073Z,2.77
2023-01-27T07:23:24.993Z,2.76
2023-01-27T07:25:55.573Z,2.68
2023-01-27T07:28:24.154Z,2.79
2023-01-27T07:30:54.809Z,2.78
2023-01-27T07:33:22.818Z,2.79
2023-01-27T07:35:51.098Z,2.61
2023-01-27T07:38:18.780Z,2.60
2023-01-27T07:40:46.494Z,2.72
2023-01-27T07:43:15.736Z,2.67
2023-01-27T07:45:43.447Z,2.94
2023-01-27T07:48:12.869Z,2.84
2023-01-27T07:50:41.572Z,2.86
2023-01-27T07:53:09.414Z,2.82
2023-01-27T07:55:37.070Z,2.95
2023-01-27T07:58:04.731Z,2.78
2023-01-27T08:00:34.461Z,2.85
2023-01-27T08:03:04.305Z,2.88
2023-01-27T08:05:33.965Z,3.00
2023-01-27T08:08:03.811Z,3.05
2023-01-27T08:10:31.517Z,3.08
2023-01-27T08:12:59.242Z,3.19
2023-01-27T08:15:27.066Z,3.19
2023-01-27T08:17:58.720Z,3.23
2023-01-27T08:20:28.433Z,3.41
2023-01-27T08:22:56.305Z,3.48
2023-01-27T08:25:24.239Z,3.40
2023-01-27T08:27:52.217Z,3.51
2023-01-27T08:30:20.520Z,3.53
2023-01-27T08:32:48.613Z,3.51
2023-01-27T08:35:17.730Z,3.48
2023-01-27T08:37:48.392Z,3.52
2023-01-27T08:40:16.900Z,3.43
2023-01-27T08:42:44.641Z,3.35
2023-01-27T08:45:12.438Z,3.43
2023-01-27T08:47:40.363Z,3.51
2023-01-27T08:50:09.196Z,3.40
2023-01-27T08:52:39.297Z,3.27
2023-01-27T08:55:07.470Z,3.30
2023-01-27T08:57:36.886Z,3.36
2023-01-27T09:00:06.508Z,3.36
2023-01-27T09:02:34.331Z,3.32
2023-01-27T09:05:04.764Z,3.42
2023-01-27T09:07:33.205Z,3.55
2023-01-27T09:10:14.050Z,3.53
2023-01-27T09:12:45.398Z,3.47
2023-01-27T09:15:13.966Z,3.56
2023-01-27T09:17:42.113Z,3.51
2023-01-27T09:20:11.064Z,3.43
2023-01-27T09:22:40.196Z,3.40
2023-01-27T09:25:13.195Z,3.46
2023-01-27T09:27:41.366Z,3.49
2023-01-27T09:30:11.278Z,3.40
2023-01-27T09:32:39.333Z,3.53
2023-01-27T09:35:07.630Z,3.48
2023-01-27T09:37:40.052Z,3.59
2023-01-27T09:40:19.449Z,3.66
2023-01-27T09:42:59.782Z,3.61
2023-01-27T09:45:46.486Z,3.71
2023-01-27T09:48:24.447Z,3.62
2023-01-27T09:50:58.630Z,3.50
2023-01-27T09:53:59.538Z,3.56
2023-01-27T09:56:40.217Z,3.48
2023-01-27T09:59:46.725Z,3.71
2023-01-27T10:02:27.509Z,3.63
2023-01-27T10:05:15.982Z,3.55
2023-01-27T10:08:17.620Z,3.70
2023-01-27T10:10:59.370Z,3.59
2023-01-27T10:13:41.689Z,3.58
2023-01-27T10:16:28.242Z,3.63
2023-01-27T10:19:22.547Z,3.47
2023-01-27T10:21:59.919Z,3.63
2023-01-27T10:24:42.579Z,3.70
2023-01-27T10:27:17.781Z,3.71
2023-01-27T10:29:53.856Z,3.73
2023-01-27T10:32:28.276Z,3.72
2023-01-27T10:35:09.758Z,3.76
2023-01-27T10:37:47.816Z,3.81
2023-01-27T10:40:26.076Z,3.88
2023-01-27T10:43:04.253Z,3.95
2023-01-27T10:45:39.765Z,3.96
2023-01-27T10:48:37.170Z,3.79
2023-01-27T10:51:11.487Z,3.68
2023-01-27T10:53:50.533Z,3.86
2023-01-27T10:56:25.465Z,3.79
2023-01-27T10:59:03.043Z,3.78
2023-01-27T11:01:37.114Z,3.78
2023-01-27T11:04:11.737Z,3.76
2023-01-27T11:06:43.038Z,3.87
2023-01-27T11:09:18.245Z,3.93
2023-01-27T11:11:47.406Z,4.10
2023-01-27T11:14:23.718Z,4.32
2023-01-27T11:17:06.472Z,4.21
2023-01-27T11:19:43.307Z,4.45
2023-01-27T11:22:19.635Z,4.32
2023-01-27T11:24:50.822Z,4.27
2023-01-27T11:27:27.719Z,4.39
2023-01-27T11:29:59.672Z,4.47
2023-01-27T11:32:41.006Z,4.24
2023-01-27T11:35:11.847Z,4.48
2023-01-27T11:37:41.606Z,4.49
2023-01-27T11:40:17.359Z,4.50
2023-01-27T11:42:46.230Z,4.42
2023-01-27T11:45:18.817Z,4.34
2023-01-27T11:47:52.101Z,4.37
2023-01-27T11:50:24.691Z,4.42
2023-01-27T11:52:56.342Z,4.36
2023-01-27T11:55:26.460Z,4.28
2023-01-27T11:57:59.141Z,4.30
2023-01-27T12:00:31.402Z,4.23
2023-01-27T12:03:07.575Z,4.23
2023-01-27T12:05:37.549Z,4.38
2023-01-27T12:08:06.440Z,4.57
2023-01-27T12:10:39.078Z,4.61
2023-01-27T12:13:10.347Z,4.52
2023-01-27T12:15:40.462Z,4.49
2023-01-27T12:18:16.244Z,4.61
2023-01-27T12:20:47.207Z,4.43
2023-01-27T12:23:23.237Z,4.58
2023-01-27T12:25:55.886Z,4.63
2023-01-27T12:28:31.096Z,4.73
2023-01-27T12:31:07.255Z,4.77
2023-01-27T12:33:38.932Z,4.74
2023-01-27T12:36:15.970Z,4.73
2023-01-27T12:38:51.958Z,4.79
2023-01-27T12:41:24.732Z,4.74
2023-01-27T12:43:55.753Z,4.75
2023-01-27T12:46:25.466Z,4.80
2023-01-27T12:49:02.570Z,4.84
2023-01-27T12:51:41.594Z,4.82
2023-01-27T12:54:17.515Z,4.80
2023-01-27T12:56:45.398Z,4.77
2023-01-27T12:59:17.057Z,4.76
2023-01-27T13:01:57.711Z,4.73
2023-01-27T13:04:27.309Z,4.81
2023-01-27T13:07:04.121Z,4.95
2023-01-27T13:09:34.971Z,4.72
2023-01-27T13:12:05.736Z,4.49
2023-01-27T13:14:40.713Z,4.80
2023-01-27T13:17:28.923Z,4.70
2023-01-27T13:20:01.536Z,4.88
2023-01-27T13:22:37.398Z,4.96
2023-01-27T13:25:06.171Z,4.64
2023-01-27T13:27:40.066Z,4.88
2023-01-27T13:30:22.101Z,4.66
2023-01-27T13:32:53.250Z,4.68
2023-01-27T13:35:26.911Z,4.70
2023-01-27T13:38:01.762Z,4.46
2023-01-27T13:40:32.900Z,4.65
2023-01-27T13:43:09.510Z,4.91
2023-01-27T13:45:40.239Z,4.63
2023-01-27T13:48:15.688Z,4.90
2023-01-27T13:50:49.911Z,4.97
2023-01-27T13:53:20.659Z,4.97
2023-01-27T13:56:06.008Z,4.92
2023-01-27T13:58:53.705Z,4.97
2023-01-27T14:01:26.197Z,4.89
2023-01-27T14:04:34.607Z,4.81
2023-01-27T14:07:15.751Z,4.74
2023-01-27T14:09:56.320Z,4.68
2023-01-27T14:12:40.964Z,4.69
2023-01-27T14:15:23.330Z,4.70
2023-01-27T14:17:57.791Z,4.76
2023-01-27T14:20:40.833Z,4.68
2023-01-27T14:23:26.230Z,4.70
2023-01-27T14:26:02.198Z,4.79
2023-01-27T14:28:40.368Z,4.71
2023-01-27T14:31:13.806Z,4.74
2023-01-27T14:33:59.437Z,4.70
2023-01-27T14:36:32.436Z,4.77
2023-01-27T14:39:13.657Z,4.71
2023-01-27T14:41:46.830Z,4.72
2023-01-27T14:44:23.893Z,4.83
2023-01-27T14:46:58.759Z,4.91
2023-01-27T14:49:42.328Z,4.99
2023-01-27T14:52:25.216Z,5.01
2023-01-27T14:55:03.994Z,4.94
2023-01-27T14:57:44.101Z,4.89
2023-01-27T15:00:25.225Z,4.79
2023-01-27T15:03:04.741Z,4.77
2023-01-27T15:05:40.310Z,4.72
2023-01-27T15:08:19.892Z,4.93
2023-01-27T15:10:58.156Z,5.02
2023-01-27T15:13:41.299Z,5.02
2023-01-27T15:16:24.662Z,4.91
2023-01-27T15:19:11.883Z,4.92
2023-01-27T15:22:04.519Z,4.92
2023-01-27T15:24:52.126Z,4.98
2023-01-27T15:27:21.782Z,4.98
2023-01-27T15:29:49.681Z,4.94
2023-01-27T15:32:39.838Z,4.86
2023-01-27T15:35:34.587Z,4.88
2023-01-27T15:38:22.930Z,4.99
2023-01-27T15:41:12.815Z,4.91
2023-01-27T15:44:02.658Z,4.86
2023-01-27T15:46:39.201Z,4.91
2023-01-27T15:49:23.033Z,4.81
2023-01-27T15:51:53.317Z,4.74
2023-01-27T15:54:27.623Z,4.79
2023-01-27T15:57:05.599Z,4.85
2023-01-27T15:59:57.238Z,4.91
2023-01-27T16:02:29.591Z,4.90
2023-01-27T16:05:07.371Z,4.90
2023-01-27T16:07:37.505Z,4.74
2023-01-27T16:10:09.429Z,4.76
2023-01-27T16:12:40.139Z,4.77
2023-01-27T16:15:42.383Z,4.79
2023-01-27T16:18:41.173Z,4.68
2023-01-27T16:21:38.124Z,4.77
2023-01-27T16:24:13.291Z,4.84
2023-01-27T16:26:48.216Z,4.73
2023-01-27T16:29:34.153Z,4.67
2023-01-27T16:32:07.732Z,4.75
2023-01-27T16:34:41.146Z,4.77
2023-01-27T16:37:20.419Z,4.79
2023-01-27T16:40:09.077Z,4.58
2023-01-27T16:42:43.585Z,4.55
2023-01-27T16:45:21.464Z,4.65
2023-01-27T16:48:01.662Z,4.66
2023-01-27T16:50:35.275Z,4.62
2023-01-27T16:53:05.604Z,4.67
2023-01-27T16:55:34.423Z,4.71
2023-01-27T16:58:03.985Z,4.74
2023-01-27T17:00:35.881Z,4.66
2023-01-27T17:03:12.406Z,4.61
2023-01-27T17:05:45.901Z,4.58
2023-01-27T17:08:20.226Z,4.57
2023-01-27T17:13:45.550Z,4.48
2023-01-27T17:16:23.158Z,4.57
2023-01-27T17:18:56.974Z,4.57
2023-01-27T17:21:30.840Z,4.54
2023-01-27T17:24:06.442Z,4.49
2023-01-27T17:26:38.697Z,4.43
2023-01-27T17:29:06.732Z,4.47
2023-01-27T17:31:38.296Z,4.47
2023-01-27T17:34:13.665Z,4.44
2023-01-27T17:37:06.072Z,4.54
2023-01-27T17:39:34.117Z,4.62
2023-01-27T17:42:01.871Z,4.54
2023-01-27T17:44:29.993Z,4.61
2023-01-27T17:47:03.575Z,4.59
2023-01-27T17:49:33.637Z,4.38
2023-01-27T17:52:02.274Z,4.34
2023-01-27T17:54:33.499Z,4.34
2023-01-27T17:57:07.838Z,4.34
2023-01-27T17:59:39.297Z,4.33
2023-01-27T18:02:14.646Z,4.38
2023-01-27T18:04:44.229Z,4.20
2023-01-27T18:07:12.933Z,4.14
2023-01-27T18:09:46.199Z,4.11
2023-01-27T18:12:32.201Z,4.17
2023-01-27T18:15:01.837Z,4.22
2023-01-27T18:17:31.966Z,4.24
2023-01-27T18:20:01.146Z,4.07
2023-01-27T18:22:28.785Z,4.19
2023-01-27T18:25:02.682Z,4.02
2023-01-27T18:27:34.644Z,4.05
2023-01-27T18:30:07.243Z,4.05
2023-01-27T18:32:41.237Z,4.19
2023-01-27T18:35:25.032Z,4.06
2023-01-27T18:37:55.770Z,4.05
2023-01-27T18:40:28.673Z,3.89
2023-01-27T18:42:57.671Z,4.03
2023-01-27T18:45:28.627Z,4.17
2023-01-27T18:47:59.562Z,4.06
2023-01-27T18:50:31.648Z,4.09
2023-01-27T18:53:00.936Z,4.11
2023-01-27T18:55:33.856Z,3.96
2023-01-27T18:58:01.934Z,3.91
2023-01-27T19:00:41.059Z,4.04
2023-01-27T19:03:15.831Z,4.06
2023-01-27T19:05:47.372Z,3.96
2023-01-27T19:08:17.077Z,3.93
2023-01-27T19:10:46.435Z,3.85
2023-01-27T19:13:15.312Z,3.85
2023-01-27T19:15:52.352Z,3.87
2023-01-27T19:18:26.619Z,3.81
2023-01-27T19:20:57.436Z,4.05
2023-01-27T19:23:32.422Z,3.89
2023-01-27T19:26:03.455Z,3.79
2023-01-27T19:28:35.066Z,3.82
2023-01-27T19:34:28.952Z,3.64
2023-01-27T19:36:59.133Z,3.66
2023-01-27T19:39:27.211Z,3.59
2023-01-27T19:41:54.861Z,3.68
2023-01-27T19:44:22.651Z,3.48
2023-01-27T19:46:51.026Z,3.38
2023-01-27T19:49:20.323Z,3.29
2023-01-27T19:51:49.006Z,3.35
2023-01-27T19:54:21.158Z,3.35
2023-01-27T19:56:52.256Z,3.33
2023-01-27T19:59:20.298Z,3.36
2023-01-27T20:01:48.133Z,3.44
2023-01-27T20:04:20.291Z,3.42
2023-01-27T20:06:57.954Z,3.40
2023-01-27T20:09:28.609Z,3.51
2023-01-27T20:12:06.095Z,3.53
2023-01-27T20:14:47.818Z,3.45
2023-01-27T20:17:25.863Z,3.34
2023-01-27T20:23:02.846Z,3.56
2023-01-27T20:25:53.106Z,3.51
2023-01-27T20:28:20.913Z,3.59
2023-01-27T20:31:00.393Z,3.54
2023-01-27T20:36:17.579Z,3.64
2023-01-27T20:38:46.578Z,3.54
2023-01-27T20:41:22.136Z,3.60
2023-01-27T20:44:12.328Z,3.59
2023-01-27T20:46:48.304Z,3.67
2023-01-27T20:49:17.598Z,3.58
2023-01-27T20:51:45.262Z,3.52
2023-01-27T20:54:15.883Z,3.38
2023-01-27T20:56:45.177Z,3.36
2023-01-27T20:59:15.673Z,3.51
2023-01-27T21:01:59.579Z,3.43
2023-01-27T21:04:27.612Z,3.47
2023-01-27T21:07:00.637Z,3.44
2023-01-27T21:09:28.716Z,3.49
2023-01-27T21:11:59.919Z,3.46
2023-01-27T21:14:27.873Z,3.44
2023-01-27T21:16:55.573Z,3.41
2023-01-27T21:19:24.511Z,3.48
2023-01-27T21:21:52.333Z,3.41
2023-01-27T21:24:20.185Z,3.43
2023-01-27T21:26:47.880Z,3.49
2023-01-27T21:29:17.209Z,3.47
2023-01-27T21:31:45.439Z,3.38
2023-01-27T21:34:14.863Z,3.29
2023-01-27T21:36:42.551Z,3.40
2023-01-27T21:39:11.424Z,3.38
2023-01-27T21:41:59.243Z,3.28
2023-01-27T21:44:48.273Z,3.35
2023-01-27T21:47:20.615Z,3.26
2023-01-27T21:50:04.032Z,3.33
2023-01-27T21:52:34.765Z,3.33
2023-01-27T21:55:04.365Z,3.35
2023-01-27T21:57:32.332Z,3.29
2023-01-27T22:00:01.617Z,3.33
2023-01-27T22:02:29.474Z,3.22
2023-01-27T22:04:57.416Z,3.32
2023-01-27T22:07:27.225Z,3.26
2023-01-27T22:09:55.081Z,3.29
2023-01-27T22:12:23.523Z,3.30
2023-01-27T22:14:51.157Z,3.27
2023-01-27T22:17:20.602Z,3.23
2023-01-27T22:19:48.337Z,3.29
2023-01-27T22:22:28.266Z,3.28
2023-01-27T22:27:43.866Z,3.38
2023-01-27T22:30:14.963Z,3.37
2023-01-27T22:33:10.655Z,3.15
2023-01-27T22:35:41.824Z,3.08
2023-01-27T22:38:23.871Z,3.12
2023-01-27T22:41:04.921Z,3.12
2023-01-27T22:43:35.932Z,3.04
2023-01-27T22:46:08.242Z,2.97
2023-01-27T22:48:38.605Z,3.07
2023-01-27T22:51:07.638Z,2.98
2023-01-27T22:53:36.342Z,2.99
2023-01-27T22:56:17.236Z,3.04
2023-01-27T22:58:54.832Z,2.95
2023-01-27T23:01:35.431Z,2.96
2023-01-27T23:04:06.019Z,2.90
2023-01-27T23:06:36.015Z,2.91
2023-01-27T23:09:06.721Z,2.90
2023-01-27T23:11:42.790Z,2.85
2023-01-27T23:14:15.970Z,2.97
2023-01-27T23:16:47.958Z,2.98
2023-01-27T23:19:19.711Z,2.95
2023-01-27T23:21:50.189Z,3.04
2023-01-27T23:24:17.962Z,3.02
2023-01-27T23:26:45.899Z,3.14
2023-01-27T23:29:24.354Z,3.01
2023-01-27T23:31:53.930Z,2.83
2023-01-27T23:34:23.227Z,2.80
2023-01-27T23:36:51.096Z,2.90
2023-01-27T23:39:18.763Z,2.82
2023-01-27T23:41:46.398Z,2.81
2023-01-27T23:44:14.349Z,2.88
2023-01-27T23:46:43.487Z,2.77
2023-01-27T23:49:12.831Z,2.71
2023-01-27T23:51:41.769Z,2.76
2023-01-27T23:54:09.606Z,2.74
2023-01-27T23:56:37.222Z,2.70
2023-01-27T23:59:04.885Z,2.67
